createdAt,value
2023-05-21T00:00:45.285Z,14.90
2023-05-21T00:01:45.252Z,14.86
2023-05-21T00:02:45.320Z,14.80
2023-05-21T00:03:45.356Z,14.79
2023-05-21T00:04:45.230Z,14.80
2023-05-21T00:05:45.209Z,14.83
2023-05-21T00:06:45.196Z,14.82
2023-05-21T00:07:45.174Z,14.78
2023-05-21T00:08:45.170Z,14.72
2023-05-21T00:09:45.143Z,14.71
2023-05-21T00:10:45.128Z,14.69
2023-05-21T00:11:45.120Z,14.67
2023-05-21T00:12:45.102Z,14.64
2023-05-21T00:13:45.094Z,14.66
2023-05-21T00:14:45.070Z,14.64
2023-05-21T00:15:45.052Z,14.63
2023-05-21T00:16:45.182Z,14.63
2023-05-21T00:17:45.038Z,14.66
2023-05-21T00:18:45.053Z,14.69
2023-05-21T00:19:45.027Z,14.71
2023-05-21T00:20:45.032Z,14.67
2023-05-21T00:21:44.986Z,14.66
2023-05-21T00:22:44.980Z,14.67
2023-05-21T00:23:44.936Z,14.66
2023-05-21T00:24:44.967Z,14.66
2023-05-21T00:25:44.944Z,14.63
2023-05-21T00:26:44.919Z,14.63
2023-05-21T00:27:44.893Z,14.60
2023-05-21T00:28:44.887Z,14.59
2023-05-21T00:29:44.872Z,14.56
2023-05-21T00:30:44.862Z,14.53
2023-05-21T00:31:44.864Z,14.52
2023-05-21T00:32:44.840Z,14.49
2023-05-21T00:33:44.815Z,14.49
2023-05-21T00:34:44.804Z,14.48
2023-05-21T00:35:44.809Z,14.45
2023-05-21T00:36:44.770Z,14.42
2023-05-21T00:37:44.761Z,14.35
2023-05-21T00:38:44.746Z,14.30
2023-05-21T00:39:44.722Z,14.30
2023-05-21T00:40:44.734Z,14.29
2023-05-21T00:41:44.700Z,14.24
2023-05-21T00:42:44.693Z,14.21
2023-05-21T00:43:44.674Z,14.23
2023-05-21T00:44:44.682Z,14.20
2023-05-21T00:45:44.718Z,14.19
2023-05-21T00:46:44.632Z,14.17
2023-05-21T00:47:44.667Z,14.16
2023-05-21T00:48:44.615Z,14.13
2023-05-21T00:49:44.600Z,14.11
2023-05-21T00:50:44.579Z,14.09
2023-05-21T00:51:44.574Z,14.11
2023-05-21T00:52:44.557Z,14.12
2023-05-21T00:53:44.544Z,14.13
2023-05-21T00:54:44.554Z,14.13
2023-05-21T00:55:44.518Z,14.13
2023-05-21T00:56:44.498Z,14.11
2023-05-21T00:57:44.472Z,14.09
2023-05-21T00:58:44.511Z,14.08
2023-05-21T00:59:44.498Z,14.04
2023-05-21T01:00:44.456Z,14.04
2023-05-21T01:01:44.463Z,14.06
2023-05-21T01:02:44.577Z,14.08
2023-05-21T01:03:44.453Z,14.08
2023-05-21T01:04:44.398Z,14.09
2023-05-21T01:05:44.372Z,14.11
2023-05-21T01:06:44.371Z,14.11
2023-05-21T01:07:44.360Z,14.12
2023-05-21T01:08:44.381Z,14.11
2023-05-21T01:09:44.309Z,14.11
2023-05-21T01:10:44.318Z,14.12
2023-05-21T01:11:44.302Z,14.09
2023-05-21T01:12:44.324Z,14.05
2023-05-21T01:13:44.257Z,14.05
2023-05-21T01:14:44.262Z,14.01
2023-05-21T01:15:44.229Z,13.98
2023-05-21T01:16:44.283Z,13.94
2023-05-21T01:17:44.250Z,13.90
2023-05-21T01:18:44.246Z,13.90
2023-05-21T01:19:44.279Z,13.88
2023-05-21T01:20:44.176Z,13.88
2023-05-21T01:21:44.153Z,13.88
2023-05-21T01:22:44.170Z,13.91
2023-05-21T01:23:44.131Z,13.91
2023-05-21T01:24:44.124Z,13.90
2023-05-21T01:25:44.107Z,13.88
2023-05-21T01:26:44.132Z,13.87
2023-05-21T01:27:44.091Z,13.84
2023-05-21T01:28:44.079Z,13.83
2023-05-21T01:29:44.042Z,13.81
2023-05-21T01:30:44.041Z,13.79
2023-05-21T01:31:44.038Z,13.75
2023-05-21T01:32:44.082Z,13.71
2023-05-21T01:33:44.027Z,13.69
2023-05-21T01:34:43.984Z,13.68
2023-05-21T01:35:43.957Z,13.68
2023-05-21T01:36:43.967Z,13.68
2023-05-21T01:37:43.952Z,13.66
2023-05-21T01:38:43.921Z,13.66
2023-05-21T01:39:43.912Z,13.66
2023-05-21T01:40:43.921Z,13.66
2023-05-21T01:41:43.895Z,13.63
2023-05-21T01:42:43.874Z,13.65
2023-05-21T01:43:43.857Z,13.71
2023-05-21T01:44:43.861Z,13.69
2023-05-21T01:45:43.852Z,13.71
2023-05-21T01:46:43.922Z,13.68
2023-05-21T01:47:43.850Z,13.68
2023-05-21T01:48:43.817Z,13.66
2023-05-21T01:49:43.790Z,13.68
2023-05-21T01:50:43.785Z,13.69
2023-05-21T01:51:43.745Z,13.69
2023-05-21T01:52:43.750Z,13.66
2023-05-21T01:53:43.736Z,13.63
2023-05-21T01:54:43.738Z,13.61
2023-05-21T01:55:43.722Z,13.55
2023-05-21T01:56:43.715Z,13.50
2023-05-21T01:57:43.681Z,13.48
2023-05-21T01:58:43.680Z,13.46
2023-05-21T01:59:43.667Z,13.41
2023-05-21T02:00:43.625Z,13.38
2023-05-21T02:01:43.681Z,13.35
2023-05-21T02:02:43.646Z,13.28
2023-05-21T02:03:43.666Z,13.24
2023-05-21T02:04:43.610Z,13.17
2023-05-21T02:05:43.576Z,13.16
2023-05-21T02:06:43.565Z,13.13
2023-05-21T02:07:43.554Z,13.14
2023-05-21T02:08:43.530Z,13.14
2023-05-21T02:09:43.553Z,13.13
2023-05-21T02:10:43.521Z,13.13
2023-05-21T02:11:43.501Z,13.13
2023-05-21T02:12:43.484Z,13.13
2023-05-21T02:13:43.472Z,13.16
2023-05-21T02:14:43.468Z,13.16
2023-05-21T02:15:43.430Z,13.16
2023-05-21T02:16:43.575Z,13.16
2023-05-21T02:17:43.423Z,13.12
2023-05-21T02:18:43.589Z,13.09
2023-05-21T02:19:43.374Z,13.09
2023-05-21T02:20:43.383Z,13.10
2023-05-21T02:21:43.359Z,13.09
2023-05-21T02:22:43.358Z,13.16
2023-05-21T02:23:43.352Z,13.17
2023-05-21T02:24:43.324Z,13.19
2023-05-21T02:25:43.303Z,13.19
2023-05-21T02:26:43.293Z,13.17
2023-05-21T02:27:43.318Z,13.19
2023-05-21T02:28:43.286Z,13.21
2023-05-21T02:29:43.259Z,13.22
2023-05-21T02:30:43.224Z,13.27
2023-05-21T02:31:43.232Z,13.29
2023-05-21T02:32:43.383Z,13.32
2023-05-21T02:33:43.241Z,13.35
2023-05-21T02:34:43.198Z,13.31
2023-05-21T02:35:43.177Z,13.29
2023-05-21T02:36:43.165Z,13.28
2023-05-21T02:37:43.141Z,13.29
2023-05-21T02:38:43.132Z,13.31
2023-05-21T02:39:43.111Z,13.31
2023-05-21T02:40:43.104Z,13.31
2023-05-21T02:41:43.105Z,13.32
2023-05-21T02:42:43.098Z,13.35
2023-05-21T02:43:43.055Z,13.38
2023-05-21T02:44:43.059Z,13.41
2023-05-21T02:45:43.025Z,13.39
2023-05-21T02:46:43.035Z,13.41
2023-05-21T02:47:43.086Z,13.39
2023-05-21T02:48:42.984Z,13.41
2023-05-21T02:49:42.968Z,13.41
2023-05-21T02:50:42.993Z,13.41
2023-05-21T02:51:42.962Z,13.36
2023-05-21T02:52:42.941Z,13.38
2023-05-21T02:53:42.927Z,13.38
2023-05-21T02:54:42.907Z,13.36
2023-05-21T02:55:42.913Z,13.39
2023-05-21T02:56:42.902Z,13.41
2023-05-21T02:57:42.874Z,13.43
2023-05-21T02:58:42.879Z,13.43
2023-05-21T02:59:42.848Z,13.41
2023-05-21T03:00:42.868Z,13.43
2023-05-21T03:01:42.863Z,13.44
2023-05-21T03:02:42.854Z,13.46
2023-05-21T03:03:42.808Z,13.46
2023-05-21T03:04:42.792Z,13.44
2023-05-21T03:05:42.764Z,13.46
2023-05-21T03:06:42.743Z,13.43
2023-05-21T03:07:42.728Z,13.39
2023-05-21T03:08:42.717Z,13.39
2023-05-21T03:09:42.761Z,13.36
2023-05-21T03:10:42.721Z,13.36
2023-05-21T03:11:42.684Z,13.32
2023-05-21T03:12:42.670Z,13.31
2023-05-21T03:13:42.785Z,13.27
2023-05-21T03:14:42.691Z,13.28
2023-05-21T03:15:42.646Z,13.28
2023-05-21T03:16:42.667Z,13.28
2023-05-21T03:17:42.664Z,13.27
2023-05-21T03:18:42.596Z,13.25
2023-05-21T03:19:42.593Z,13.25
2023-05-21T03:20:42.560Z,13.27
2023-05-21T03:21:42.554Z,13.28
2023-05-21T03:22:42.538Z,13.29
2023-05-21T03:23:42.528Z,13.29
2023-05-21T03:24:42.523Z,13.31
2023-05-21T03:25:42.490Z,13.32
2023-05-21T03:26:42.500Z,13.35
2023-05-21T03:27:42.484Z,13.32
2023-05-21T03:28:42.472Z,13.32
2023-05-21T03:29:42.446Z,13.31
2023-05-21T03:30:42.427Z,13.28
2023-05-21T03:31:42.427Z,13.25
2023-05-21T03:32:42.458Z,13.24
2023-05-21T03:33:42.397Z,13.25
2023-05-21T03:34:42.384Z,13.25
2023-05-21T03:35:42.370Z,13.29
2023-05-21T03:36:42.380Z,13.31
2023-05-21T03:37:42.343Z,13.35
2023-05-21T03:38:42.349Z,13.38
2023-05-21T03:39:42.302Z,13.39
2023-05-21T03:40:42.311Z,13.41
2023-05-21T03:41:42.292Z,13.41
2023-05-21T03:42:42.280Z,13.41
2023-05-21T03:43:42.262Z,13.43
2023-05-21T03:44:42.248Z,13.43
2023-05-21T03:45:44.360Z,13.44
2023-05-21T03:46:42.357Z,13.47
2023-05-21T03:47:42.253Z,13.50
2023-05-21T03:48:42.209Z,13.51
2023-05-21T03:49:42.173Z,13.51
2023-05-21T03:50:42.156Z,13.51
2023-05-21T03:51:42.160Z,13.51
2023-05-21T03:52:42.161Z,13.53
2023-05-21T03:53:42.148Z,13.55
2023-05-21T03:54:42.103Z,13.57
2023-05-21T03:55:42.129Z,13.57
2023-05-21T03:56:42.101Z,13.57
2023-05-21T03:57:42.093Z,13.59
2023-05-21T03:58:42.047Z,13.61
2023-05-21T03:59:42.073Z,13.62
2023-05-21T04:00:42.041Z,13.63
2023-05-21T04:01:42.031Z,13.65
2023-05-21T04:02:42.063Z,13.65
2023-05-21T04:03:42.177Z,13.66
2023-05-21T04:04:42.006Z,13.66
2023-05-21T04:05:41.972Z,13.69
2023-05-21T04:06:41.943Z,13.71
2023-05-21T04:07:41.980Z,13.73
2023-05-21T04:08:41.925Z,13.76
2023-05-21T04:09:41.928Z,13.80
2023-05-21T04:10:41.899Z,13.84
2023-05-21T04:11:41.899Z,13.87
2023-05-21T04:12:41.868Z,13.88
2023-05-21T04:13:41.869Z,13.90
2023-05-21T04:14:41.851Z,13.91
2023-05-21T04:15:41.837Z,13.91
2023-05-21T04:16:41.843Z,13.91
2023-05-21T04:17:41.821Z,13.94
2023-05-21T04:18:44.143Z,13.94
2023-05-21T04:19:41.803Z,13.96
2023-05-21T04:20:41.762Z,13.99
2023-05-21T04:21:41.758Z,14.02
2023-05-21T04:22:41.745Z,14.08
2023-05-21T04:23:41.775Z,14.16
2023-05-21T04:24:41.724Z,14.21
2023-05-21T04:25:41.719Z,14.29
2023-05-21T04:26:41.696Z,14.31
2023-05-21T04:27:41.684Z,14.36
2023-05-21T04:28:41.657Z,14.42
2023-05-21T04:29:41.659Z,14.48
2023-05-21T04:30:41.625Z,14.57
2023-05-21T04:31:41.738Z,14.61
2023-05-21T04:32:41.631Z,14.64
2023-05-21T04:33:41.601Z,14.67
2023-05-21T04:34:41.576Z,14.67
2023-05-21T04:35:41.597Z,14.71
2023-05-21T04:36:41.538Z,14.71
2023-05-21T04:37:41.542Z,14.71
2023-05-21T04:38:41.536Z,14.71
2023-05-21T04:39:41.536Z,14.72
2023-05-21T04:40:41.500Z,14.71
2023-05-21T04:41:41.483Z,14.67
2023-05-21T04:42:41.501Z,14.69
2023-05-21T04:43:41.452Z,14.71
2023-05-21T04:44:41.484Z,14.72
2023-05-21T04:45:41.426Z,14.74
2023-05-21T04:46:41.959Z,14.75
2023-05-21T04:47:41.430Z,14.79
2023-05-21T04:48:41.387Z,14.79
2023-05-21T04:49:41.415Z,14.82
2023-05-21T04:50:41.374Z,14.85
2023-05-21T04:51:41.345Z,14.86
2023-05-21T04:52:41.326Z,14.90
2023-05-21T04:53:41.325Z,14.93
2023-05-21T04:54:41.341Z,14.97
2023-05-21T04:55:41.314Z,15.00
2023-05-21T04:56:41.297Z,15.04
2023-05-21T04:57:41.280Z,15.05
2023-05-21T04:58:41.281Z,15.07
2023-05-21T04:59:41.259Z,15.13
2023-05-21T05:00:41.241Z,15.20
2023-05-21T05:01:41.212Z,15.31
2023-05-21T05:02:41.238Z,15.40
2023-05-21T05:03:41.242Z,15.49
2023-05-21T05:04:41.165Z,15.53
2023-05-21T05:05:41.158Z,15.58
2023-05-21T05:06:41.147Z,15.58
2023-05-21T05:07:41.128Z,15.62
2023-05-21T05:08:41.124Z,15.66
2023-05-21T05:09:41.104Z,15.70
2023-05-21T05:10:41.096Z,15.73
2023-05-21T05:11:41.082Z,15.77
2023-05-21T05:12:41.066Z,15.77
2023-05-21T05:13:41.310Z,15.84
2023-05-21T05:14:41.038Z,15.88
2023-05-21T05:15:41.027Z,15.95
2023-05-21T05:16:41.049Z,15.99
2023-05-21T05:17:41.084Z,16.04
2023-05-21T05:18:40.989Z,16.07
2023-05-21T05:19:40.983Z,16.10
2023-05-21T05:20:40.959Z,16.16
2023-05-21T05:21:40.966Z,16.23
2023-05-21T05:22:40.945Z,16.27
2023-05-21T05:23:40.922Z,16.33
2023-05-21T05:24:40.911Z,16.42
2023-05-21T05:25:40.903Z,16.47
2023-05-21T05:26:40.919Z,16.52
2023-05-21T05:27:40.865Z,16.59
2023-05-21T05:28:40.877Z,16.62
2023-05-21T05:29:40.854Z,16.67
2023-05-21T05:30:40.849Z,16.69
2023-05-21T05:31:40.837Z,16.72
2023-05-21T05:32:40.818Z,16.72
2023-05-21T05:33:40.783Z,16.69
2023-05-21T05:34:40.765Z,16.72
2023-05-21T05:35:40.766Z,16.77
2023-05-21T05:36:40.763Z,16.78
2023-05-21T05:37:40.743Z,16.80
2023-05-21T05:38:40.720Z,16.81
2023-05-21T05:39:40.711Z,16.87
2023-05-21T05:40:40.697Z,16.90
2023-05-21T05:41:40.697Z,16.92
2023-05-21T05:42:40.658Z,16.99
2023-05-21T05:43:40.660Z,17.00
2023-05-21T05:44:40.671Z,17.00
2023-05-21T05:45:40.650Z,17.05
2023-05-21T05:46:40.650Z,17.10
2023-05-21T05:47:40.595Z,17.18
2023-05-21T05:48:40.592Z,17.21
2023-05-21T05:49:40.587Z,17.27
2023-05-21T05:50:40.562Z,17.36
2023-05-21T05:51:40.561Z,17.46
2023-05-21T05:52:40.530Z,17.60
2023-05-21T05:53:40.507Z,17.68
2023-05-21T05:54:40.510Z,17.73
2023-05-21T05:55:40.548Z,17.81
2023-05-21T05:56:40.490Z,17.94
2023-05-21T05:57:40.463Z,18.05
2023-05-21T05:58:40.463Z,18.17
2023-05-21T05:59:40.486Z,18.29
2023-05-21T06:00:40.456Z,18.36
2023-05-21T06:01:40.406Z,18.39
2023-05-21T06:02:40.470Z,18.49
2023-05-21T06:03:40.582Z,18.62
2023-05-21T06:04:40.388Z,18.82
2023-05-21T06:05:40.695Z,19.05
2023-05-21T06:06:40.334Z,19.23
2023-05-21T06:07:40.336Z,19.43
2023-05-21T06:08:40.324Z,19.67
2023-05-21T06:09:40.326Z,19.89
2023-05-21T06:10:40.286Z,20.08
2023-05-21T06:11:40.294Z,20.22
2023-05-21T06:12:40.258Z,20.34
2023-05-21T06:13:40.268Z,20.54
2023-05-21T06:14:40.248Z,20.75
2023-05-21T06:15:40.210Z,20.96
2023-05-21T06:16:40.235Z,21.13
2023-05-21T06:17:40.234Z,21.38
2023-05-21T06:18:40.224Z,21.68
2023-05-21T06:19:40.166Z,22.06
2023-05-21T06:20:40.160Z,22.42
2023-05-21T06:21:40.145Z,22.69
2023-05-21T06:22:40.124Z,22.88
2023-05-21T06:23:40.125Z,23.09
2023-05-21T06:24:40.095Z,23.21
2023-05-21T06:25:40.164Z,23.37
2023-05-21T06:26:40.088Z,23.52
2023-05-21T06:27:40.068Z,23.74
2023-05-21T06:28:40.058Z,24.05
2023-05-21T06:29:40.046Z,24.26
2023-05-21T06:30:40.016Z,24.41
2023-05-21T06:31:40.044Z,24.51
2023-05-21T06:32:40.075Z,24.52
2023-05-21T06:33:40.085Z,24.66
2023-05-21T06:34:39.959Z,24.79
2023-05-21T06:35:39.972Z,24.94
2023-05-21T06:36:39.949Z,25.20
2023-05-21T06:37:39.936Z,25.39
2023-05-21T06:38:39.917Z,25.63
2023-05-21T06:39:39.899Z,25.91
2023-05-21T06:40:39.885Z,26.21
2023-05-21T06:41:39.879Z,26.53
2023-05-21T06:42:39.881Z,26.84
2023-05-21T06:43:39.853Z,27.16
2023-05-21T06:44:39.832Z,27.43
2023-05-21T06:45:40.181Z,27.66
2023-05-21T06:46:39.826Z,27.86
2023-05-21T06:47:39.854Z,27.91
2023-05-21T06:48:39.779Z,27.96
2023-05-21T06:49:39.774Z,27.96
2023-05-21T06:50:39.752Z,27.90
2023-05-21T06:51:39.774Z,27.91
2023-05-21T06:52:39.729Z,27.90
2023-05-21T06:53:39.744Z,27.90
2023-05-21T06:54:39.699Z,27.84
2023-05-21T06:55:39.690Z,27.83
2023-05-21T06:56:39.693Z,27.93
2023-05-21T06:57:39.675Z,28.01
2023-05-21T06:58:39.658Z,28.11
2023-05-21T06:59:39.643Z,28.01
2023-05-21T07:00:39.615Z,28.01
2023-05-21T07:01:39.704Z,28.06
2023-05-21T07:02:39.730Z,28.02
2023-05-21T07:03:39.638Z,28.17
2023-05-21T07:04:39.574Z,28.46
2023-05-21T07:05:39.963Z,28.80
2023-05-21T07:06:39.566Z,29.00
2023-05-21T07:07:39.569Z,29.07
2023-05-21T07:08:39.532Z,29.12
2023-05-21T07:09:39.526Z,29.23
2023-05-21T07:10:39.512Z,29.26
2023-05-21T07:11:39.496Z,29.30
2023-05-21T07:12:39.462Z,29.32
2023-05-21T07:13:39.507Z,29.27
2023-05-21T07:14:39.442Z,29.29
2023-05-21T07:15:39.489Z,29.29
2023-05-21T07:16:39.485Z,29.21
2023-05-21T07:17:39.475Z,28.97
2023-05-21T07:18:39.394Z,28.89
2023-05-21T07:19:39.425Z,28.85
2023-05-21T07:20:39.390Z,28.89
2023-05-21T07:21:39.348Z,29.03
2023-05-21T07:22:39.379Z,29.32
2023-05-21T07:23:39.320Z,29.45
2023-05-21T07:24:39.323Z,29.70
2023-05-21T07:25:39.341Z,30.00
2023-05-21T07:26:39.275Z,30.03
2023-05-21T07:27:39.294Z,29.99
2023-05-21T07:28:39.261Z,29.89
2023-05-21T07:29:39.247Z,29.95
2023-05-21T07:30:39.233Z,30.18
2023-05-21T07:31:39.342Z,30.25
2023-05-21T07:32:39.232Z,30.28
2023-05-21T07:33:39.202Z,30.38
2023-05-21T07:34:39.197Z,30.36
2023-05-21T07:35:39.262Z,30.26
2023-05-21T07:36:39.167Z,30.28
2023-05-21T07:37:39.155Z,30.22
2023-05-21T07:38:39.142Z,30.13
2023-05-21T07:39:39.161Z,29.97
2023-05-21T07:40:39.103Z,29.91
2023-05-21T07:41:39.086Z,29.97
2023-05-21T07:42:39.066Z,29.86
2023-05-21T07:43:39.093Z,29.74
2023-05-21T07:44:39.053Z,29.51
2023-05-21T07:45:39.234Z,29.45
2023-05-21T07:46:39.059Z,29.54
2023-05-21T07:47:39.096Z,29.70
2023-05-21T07:48:38.998Z,29.42
2023-05-21T07:49:39.001Z,29.27
2023-05-21T07:50:38.986Z,29.29
2023-05-21T07:51:38.962Z,29.33
2023-05-21T07:52:38.984Z,29.33
2023-05-21T07:53:38.958Z,29.33
2023-05-21T07:54:38.925Z,29.45
2023-05-21T07:55:39.057Z,29.26
2023-05-21T07:56:38.905Z,28.97
2023-05-21T07:57:38.878Z,28.54
2023-05-21T07:58:38.889Z,28.21
2023-05-21T07:59:38.851Z,28.02
2023-05-21T08:00:38.873Z,27.93
2023-05-21T08:01:38.828Z,27.87
2023-05-21T08:02:38.930Z,27.72
2023-05-21T08:03:38.974Z,27.61
2023-05-21T08:04:40.916Z,27.71
2023-05-21T08:05:39.004Z,27.83
2023-05-21T08:06:38.774Z,27.87
2023-05-21T08:07:38.765Z,27.72
2023-05-21T08:08:38.730Z,27.68
2023-05-21T08:09:38.752Z,27.81
2023-05-21T08:10:38.707Z,28.03
2023-05-21T08:11:38.699Z,28.40
2023-05-21T08:12:38.713Z,28.76
2023-05-21T08:13:38.678Z,29.10
2023-05-21T08:14:38.661Z,29.25
2023-05-21T08:15:38.836Z,29.29
2023-05-21T08:16:38.693Z,29.39
2023-05-21T08:17:38.642Z,29.51
2023-05-21T08:18:38.619Z,29.45
2023-05-21T08:19:38.698Z,29.21
2023-05-21T08:20:38.584Z,29.03
2023-05-21T08:21:38.574Z,28.89
2023-05-21T08:22:38.554Z,28.87
2023-05-21T08:23:38.539Z,28.92
2023-05-21T08:24:38.532Z,29.11
2023-05-21T08:25:38.729Z,29.33
2023-05-21T08:26:38.508Z,29.45
2023-05-21T08:27:38.492Z,29.49
2023-05-21T08:28:38.514Z,29.42
2023-05-21T08:29:38.466Z,29.37
2023-05-21T08:30:38.473Z,29.36
2023-05-21T08:31:38.473Z,29.33
2023-05-21T08:32:38.444Z,29.39
2023-05-21T08:33:38.500Z,29.45
2023-05-21T08:34:38.390Z,29.57
2023-05-21T08:35:38.683Z,29.70
2023-05-21T08:36:38.382Z,29.85
2023-05-21T08:37:38.365Z,30.03
2023-05-21T08:38:38.346Z,30.07
2023-05-21T08:39:38.333Z,29.88
2023-05-21T08:40:38.330Z,29.82
2023-05-21T08:41:38.300Z,29.79
2023-05-21T08:42:38.315Z,29.82
2023-05-21T08:43:38.285Z,29.89
2023-05-21T08:44:38.293Z,29.85
2023-05-21T08:45:39.020Z,29.78
2023-05-21T08:46:38.240Z,29.71
2023-05-21T08:47:38.249Z,29.69
2023-05-21T08:48:38.218Z,29.57
2023-05-21T08:49:38.218Z,29.48
2023-05-21T08:50:38.184Z,29.58
2023-05-21T08:51:38.165Z,29.60
2023-05-21T08:52:38.199Z,29.35
2023-05-21T08:53:38.151Z,29.21
2023-05-21T08:54:38.160Z,29.18
2023-05-21T08:55:38.312Z,29.12
2023-05-21T08:56:38.120Z,29.10
2023-05-21T08:57:38.099Z,29.21
2023-05-21T08:58:38.102Z,29.25
2023-05-21T08:59:38.070Z,29.30
2023-05-21T09:00:38.056Z,29.39
2023-05-21T09:01:38.087Z,29.33
2023-05-21T09:02:38.076Z,29.27
2023-05-21T09:03:38.080Z,29.26
2023-05-21T09:04:38.093Z,29.26
2023-05-21T09:05:38.185Z,29.23
2023-05-21T09:06:37.999Z,29.29
2023-05-21T09:07:37.965Z,29.37
2023-05-21T09:08:37.984Z,29.52
2023-05-21T09:09:37.925Z,29.71
2023-05-21T09:10:37.933Z,29.73
2023-05-21T09:11:37.920Z,29.67
2023-05-21T09:12:37.914Z,29.54
2023-05-21T09:13:39.047Z,29.26
2023-05-21T09:14:37.870Z,29.03
2023-05-21T09:15:38.147Z,28.94
2023-05-21T09:16:37.867Z,28.95
2023-05-21T09:17:37.878Z,29.00
2023-05-21T09:18:37.827Z,29.07
2023-05-21T09:19:37.943Z,29.05
2023-05-21T09:20:37.807Z,28.85
2023-05-21T09:21:37.768Z,28.72
2023-05-21T09:22:37.813Z,28.64
2023-05-21T09:23:37.762Z,28.70
2023-05-21T09:24:37.751Z,28.76
2023-05-21T09:25:37.953Z,28.76
2023-05-21T09:26:37.765Z,28.77
2023-05-21T09:27:37.720Z,28.72
2023-05-21T09:28:37.694Z,28.79
2023-05-21T09:29:37.685Z,28.94
2023-05-21T09:30:38.094Z,28.94
2023-05-21T09:31:37.694Z,28.92
2023-05-21T09:32:37.710Z,29.07
2023-05-21T09:33:37.610Z,29.25
2023-05-21T09:34:37.628Z,29.41
2023-05-21T09:35:38.256Z,29.60
2023-05-21T09:36:37.593Z,29.67
2023-05-21T09:37:37.688Z,29.79
2023-05-21T09:38:37.552Z,29.91
2023-05-21T09:39:37.586Z,29.99
2023-05-21T09:40:37.777Z,29.99
2023-05-21T09:41:37.552Z,30.00
2023-05-21T09:42:37.492Z,30.03
2023-05-21T09:43:37.530Z,30.03
2023-05-21T09:44:37.474Z,29.99
2023-05-21T09:45:37.711Z,29.95
2023-05-21T09:46:37.488Z,29.95
2023-05-21T09:47:37.446Z,29.89
2023-05-21T09:48:37.423Z,29.86
2023-05-21T09:49:37.407Z,29.88
2023-05-21T09:50:37.626Z,29.89
2023-05-21T09:51:37.392Z,29.89
2023-05-21T09:52:37.387Z,29.86
2023-05-21T09:53:37.430Z,29.78
2023-05-21T09:54:37.357Z,29.78
2023-05-21T09:55:37.367Z,29.79
2023-05-21T09:56:37.334Z,29.78
2023-05-21T09:57:37.296Z,29.74
2023-05-21T09:58:37.298Z,29.78
2023-05-21T09:59:37.268Z,29.85
2023-05-21T10:00:37.549Z,29.73
2023-05-21T10:01:37.358Z,29.78
2023-05-21T10:02:37.294Z,29.86
2023-05-21T10:03:37.223Z,29.92
2023-05-21T10:04:37.356Z,29.97
2023-05-21T10:05:37.218Z,30.04
2023-05-21T10:06:37.206Z,30.08
2023-05-21T10:07:37.177Z,29.97
2023-05-21T10:08:37.181Z,29.82
2023-05-21T10:09:37.156Z,29.70
2023-05-21T10:10:37.281Z,29.76
2023-05-21T10:11:37.147Z,29.73
2023-05-21T10:12:37.150Z,29.73
2023-05-21T10:13:37.094Z,29.82
2023-05-21T10:14:37.107Z,29.84
2023-05-21T10:15:37.080Z,29.85
2023-05-21T10:16:37.188Z,29.85
2023-05-21T10:17:37.076Z,29.86
2023-05-21T10:18:37.029Z,29.84
2023-05-21T10:19:37.034Z,29.89
2023-05-21T10:20:37.299Z,30.03
2023-05-21T10:21:36.989Z,30.10
2023-05-21T10:22:37.008Z,30.16
2023-05-21T10:23:36.968Z,30.26
2023-05-21T10:24:36.980Z,30.40
2023-05-21T10:25:36.943Z,30.56
2023-05-21T10:26:36.936Z,30.66
2023-05-21T10:27:36.910Z,30.75
2023-05-21T10:28:36.912Z,30.93
2023-05-21T10:29:36.887Z,31.03
2023-05-21T10:30:37.277Z,31.03
2023-05-21T10:31:36.862Z,31.03
2023-05-21T10:32:37.002Z,30.85
2023-05-21T10:33:36.892Z,30.79
2023-05-21T10:34:36.835Z,30.76
2023-05-21T10:35:36.967Z,30.76
2023-05-21T10:36:36.794Z,30.76
2023-05-21T10:37:36.811Z,30.78
2023-05-21T10:38:36.804Z,30.63
2023-05-21T10:39:36.797Z,30.56
2023-05-21T10:40:37.086Z,30.57
2023-05-21T10:41:36.741Z,30.60
2023-05-21T10:42:36.769Z,30.51
2023-05-21T10:43:36.704Z,30.49
2023-05-21T10:44:36.730Z,30.45
2023-05-21T10:45:36.764Z,30.45
2023-05-21T10:46:36.683Z,30.49
2023-05-21T10:47:36.673Z,30.56
2023-05-21T10:48:36.675Z,30.53
2023-05-21T10:49:36.631Z,30.51
2023-05-21T10:50:36.768Z,30.48
2023-05-21T10:51:36.636Z,30.37
2023-05-21T10:52:36.642Z,30.28
2023-05-21T10:53:36.585Z,30.25
2023-05-21T10:54:36.572Z,30.18
2023-05-21T10:55:36.570Z,30.06
2023-05-21T10:56:36.576Z,30.01
2023-05-21T10:57:36.573Z,29.99
2023-05-21T10:58:36.516Z,30.01
2023-05-21T10:59:36.567Z,30.04
2023-05-21T11:00:36.719Z,30.00
2023-05-21T11:01:36.636Z,29.99
2023-05-21T11:02:36.548Z,29.97
2023-05-21T11:03:37.898Z,29.97
2023-05-21T11:04:36.444Z,29.95
2023-05-21T11:05:36.442Z,29.94
2023-05-21T11:06:36.441Z,30.03
2023-05-21T11:07:36.403Z,30.11
2023-05-21T11:08:36.466Z,30.28
2023-05-21T11:09:36.392Z,30.46
2023-05-21T11:10:36.747Z,30.60
2023-05-21T11:11:36.372Z,30.59
2023-05-21T11:12:36.361Z,30.46
2023-05-21T11:13:36.363Z,30.46
2023-05-21T11:14:36.406Z,30.53
2023-05-21T11:15:36.318Z,30.60
2023-05-21T11:16:36.339Z,30.68
2023-05-21T11:17:36.326Z,30.75
2023-05-21T11:18:36.276Z,30.85
2023-05-21T11:19:36.288Z,30.96
2023-05-21T11:20:36.422Z,31.03
2023-05-21T11:21:36.226Z,31.10
2023-05-21T11:22:36.212Z,31.20
2023-05-21T11:23:36.211Z,31.23
2023-05-21T11:24:36.185Z,31.25
2023-05-21T11:25:36.219Z,31.35
2023-05-21T11:26:36.167Z,31.45
2023-05-21T11:27:36.177Z,31.47
2023-05-21T11:28:36.149Z,31.54
2023-05-21T11:29:36.127Z,31.67
2023-05-21T11:30:36.900Z,31.75
2023-05-21T11:31:36.121Z,31.78
2023-05-21T11:32:36.187Z,31.68
2023-05-21T11:33:36.072Z,31.62
2023-05-21T11:34:36.076Z,31.64
2023-05-21T11:35:36.039Z,31.67
2023-05-21T11:36:36.199Z,31.74
2023-05-21T11:37:36.057Z,31.71
2023-05-21T11:38:36.010Z,31.64
2023-05-21T11:39:36.024Z,31.64
2023-05-21T11:40:36.222Z,31.62
2023-05-21T11:41:35.983Z,31.68
2023-05-21T11:42:35.966Z,31.62
2023-05-21T11:43:35.958Z,31.47
2023-05-21T11:44:35.994Z,31.34
2023-05-21T11:45:35.955Z,31.22
2023-05-21T11:46:35.966Z,31.20
2023-05-21T11:47:36.005Z,31.12
2023-05-21T11:48:35.898Z,31.00
2023-05-21T11:49:35.919Z,30.96
2023-05-21T11:50:36.117Z,31.01
2023-05-21T11:51:35.849Z,30.97
2023-05-21T11:52:35.830Z,30.98
2023-05-21T11:53:35.853Z,30.94
2023-05-21T11:54:35.822Z,30.86
2023-05-21T11:55:35.794Z,30.75
2023-05-21T11:56:35.797Z,30.67
2023-05-21T11:57:35.757Z,30.63
2023-05-21T11:58:35.765Z,30.59
2023-05-21T11:59:35.768Z,30.61
2023-05-21T12:00:35.903Z,30.67
2023-05-21T12:01:35.719Z,30.72
2023-05-21T12:02:35.778Z,30.78
2023-05-21T12:03:35.790Z,30.83
2023-05-21T12:04:35.706Z,30.93
2023-05-21T12:05:35.711Z,30.90
2023-05-21T12:06:35.676Z,30.96
2023-05-21T12:07:35.635Z,31.05
2023-05-21T12:08:35.647Z,31.09
2023-05-21T12:09:35.610Z,31.09
2023-05-21T12:10:35.787Z,31.16
2023-05-21T12:11:35.591Z,31.23
2023-05-21T12:12:49.861Z,31.28
2023-05-21T12:13:36.596Z,31.32
2023-05-21T12:14:35.564Z,31.35
2023-05-21T12:15:35.565Z,31.25
2023-05-21T12:16:35.596Z,31.18
2023-05-21T12:17:35.561Z,31.07
2023-05-21T12:18:35.535Z,30.93
2023-05-21T12:19:35.482Z,30.96
2023-05-21T12:20:35.712Z,31.05
2023-05-21T12:21:35.515Z,31.07
2023-05-21T12:22:35.536Z,31.05
2023-05-21T12:23:35.435Z,31.01
2023-05-21T12:24:35.434Z,30.96
2023-05-21T12:25:35.452Z,30.90
2023-05-21T12:26:35.406Z,30.97
2023-05-21T12:27:35.411Z,31.05
2023-05-21T12:28:35.387Z,31.18
2023-05-21T12:29:35.359Z,31.27
2023-05-21T12:30:35.569Z,31.25
2023-05-21T12:31:35.494Z,31.16
2023-05-21T12:32:35.452Z,31.03
2023-05-21T12:33:35.322Z,30.98
2023-05-21T12:34:35.286Z,31.01
2023-05-21T12:35:35.335Z,31.00
2023-05-21T12:36:35.288Z,30.98
2023-05-21T12:37:35.286Z,30.97
2023-05-21T12:38:35.262Z,30.98
2023-05-21T12:39:35.261Z,30.94
2023-05-21T12:40:35.513Z,30.81
2023-05-21T12:41:35.222Z,30.82
2023-05-21T12:42:35.185Z,30.75
2023-05-21T12:43:35.217Z,30.64
2023-05-21T12:44:36.713Z,30.63
2023-05-21T12:45:35.165Z,30.60
2023-05-21T12:46:35.246Z,30.51
2023-05-21T12:47:35.166Z,30.44
2023-05-21T12:48:35.118Z,30.34
2023-05-21T12:49:35.099Z,30.29
2023-05-21T12:50:35.364Z,30.26
2023-05-21T12:51:35.095Z,30.23
2023-05-21T12:52:35.104Z,30.21